createdAt,value
2023-07-18T00:00:52.304Z,64.80
2023-07-18T00:03:20.338Z,64.40
2023-07-18T00:05:47.788Z,64.50
2023-07-18T00:08:15.490Z,64.60
2023-07-18T00:10:42.482Z,65.00
2023-07-18T00:13:09.753Z,65.80
2023-07-18T00:15:36.754Z,65.70
2023-07-18T00:18:03.953Z,65.70
2023-07-18T00:20:31.945Z,65.80
2023-07-18T00:23:00.463Z,65.70
2023-07-18T00:25:27.554Z,66.10
2023-07-18T00:27:55.365Z,66.30
2023-07-18T00:30:23.130Z,66.60
2023-07-18T00:32:51.388Z,66.40
2023-07-18T00:35:18.625Z,66.50
2023-07-18T00:37:46.152Z,66.60
2023-07-18T00:40:16.238Z,66.80
2023-07-18T00:42:46.643Z,66.70
2023-07-18T00:45:14.344Z,66.90
2023-07-18T00:47:46.593Z,67.10
2023-07-18T00:50:17.121Z,67.20
2023-07-18T00:52:53.216Z,67.40
2023-07-18T00:55:20.473Z,67.50
2023-07-18T00:57:48.263Z,67.30
2023-07-18T01:00:18.185Z,67.40
2023-07-18T01:02:46.697Z,67.30
2023-07-18T01:05:17.904Z,67.30
2023-07-18T01:07:46.463Z,67.30
2023-07-18T01:10:24.500Z,67.70
2023-07-18T01:12:57.106Z,67.80
2023-07-18T01:15:25.489Z,68.00
2023-07-18T01:17:52.732Z,68.20
2023-07-18T01:20:22.637Z,68.30
2023-07-18T01:22:58.614Z,68.60
2023-07-18T01:25:25.847Z,68.70
2023-07-18T01:27:55.207Z,68.90
2023-07-18T01:30:26.806Z,68.90
2023-07-18T01:32:54.766Z,68.80
2023-07-18T01:35:25.181Z,68.80
2023-07-18T01:37:53.245Z,69.10
2023-07-18T01:40:21.886Z,69.10
2023-07-18T01:42:53.804Z,69.20
2023-07-18T01:45:25.600Z,69.20
2023-07-18T01:47:53.317Z,69.30
2023-07-18T01:50:20.504Z,69.40
2023-07-18T01:52:48.648Z,69.60
2023-07-18T01:55:16.131Z,69.80
2023-07-18T01:57:48.841Z,70.10
2023-07-18T02:00:20.439Z,70.20
2023-07-18T02:02:50.001Z,70.30
2023-07-18T02:05:20.755Z,70.10
2023-07-18T02:07:48.894Z,69.90
2023-07-18T02:10:18.057Z,70.10
2023-07-18T02:12:45.087Z,70.30
2023-07-18T02:15:14.308Z,70.40
2023-07-18T02:17:43.729Z,70.50
2023-07-18T02:20:13.212Z,70.60
2023-07-18T02:22:43.244Z,70.70
2023-07-18T02:25:11.030Z,70.70
2023-07-18T02:27:40.592Z,70.70
2023-07-18T02:30:10.868Z,70.70
2023-07-18T02:32:41.295Z,70.90
2023-07-18T02:35:09.722Z,70.90
2023-07-18T02:37:37.188Z,70.90
2023-07-18T02:40:11.421Z,70.80
2023-07-18T02:42:39.687Z,70.70
2023-07-18T02:45:09.753Z,70.50
2023-07-18T02:47:37.677Z,70.60
2023-07-18T02:50:04.932Z,70.70
2023-07-18T02:52:32.705Z,70.90
2023-07-18T02:54:59.748Z,70.90
2023-07-18T02:57:26.838Z,71.20
2023-07-18T02:59:53.735Z,70.90
2023-07-18T03:02:21.946Z,70.90
2023-07-18T03:04:49.216Z,70.80
2023-07-18T03:07:18.878Z,70.80
2023-07-18T03:09:46.925Z,70.90
2023-07-18T03:12:14.331Z,70.90
2023-07-18T03:14:41.643Z,70.90
2023-07-18T03:17:08.803Z,71.00
2023-07-18T03:19:35.676Z,71.00
2023-07-18T03:22:02.603Z,71.00
2023-07-18T03:24:29.719Z,71.10
2023-07-18T03:26:56.800Z,71.20
2023-07-18T03:29:24.383Z,71.00
2023-07-18T03:31:51.882Z,70.90
2023-07-18T03:34:18.913Z,70.80
2023-07-18T03:36:47.034Z,70.70
2023-07-18T03:39:15.251Z,70.90
2023-07-18T03:41:42.413Z,71.00
2023-07-18T03:44:09.893Z,71.10
2023-07-18T03:46:37.325Z,70.90
2023-07-18T03:49:04.689Z,70.70
2023-07-18T03:51:32.138Z,70.80
2023-07-18T03:54:04.284Z,70.80
2023-07-18T03:56:32.459Z,71.10
2023-07-18T03:58:59.784Z,71.20
2023-07-18T04:01:27.262Z,70.70
2023-07-18T04:03:54.458Z,70.70
2023-07-18T04:06:22.745Z,70.70
2023-07-18T04:08:49.846Z,70.70
2023-07-18T04:11:17.152Z,70.40
2023-07-18T04:13:44.344Z,70.40
2023-07-18T04:16:11.366Z,70.30
2023-07-18T04:18:38.337Z,70.30
2023-07-18T04:21:05.551Z,70.20
2023-07-18T04:23:32.819Z,70.20
2023-07-18T04:26:04.161Z,70.00
2023-07-18T04:28:40.462Z,70.10
2023-07-18T04:31:07.782Z,70.20
2023-07-18T04:33:36.406Z,70.20
2023-07-18T04:36:03.856Z,70.50
2023-07-18T04:38:30.837Z,70.40
2023-07-18T04:40:58.043Z,70.70
2023-07-18T04:43:24.984Z,70.80
2023-07-18T04:45:52.063Z,70.70
2023-07-18T04:48:20.327Z,70.30
2023-07-18T04:50:51.696Z,70.30
2023-07-18T04:53:18.749Z,70.30
2023-07-18T04:55:47.096Z,70.70
2023-07-18T04:58:14.030Z,70.50
2023-07-18T05:00:40.874Z,70.60
2023-07-18T05:03:07.831Z,70.50
2023-07-18T05:05:34.841Z,70.50
2023-07-18T05:08:01.917Z,71.10
2023-07-18T05:10:28.866Z,71.10
2023-07-18T05:12:57.087Z,70.70
2023-07-18T05:15:24.425Z,70.10
2023-07-18T05:17:51.790Z,70.50
2023-07-18T05:20:18.843Z,70.20
2023-07-18T05:22:46.215Z,69.70
2023-07-18T05:25:15.535Z,70.10
2023-07-18T05:27:43.180Z,70.40
2023-07-18T05:30:19.128Z,69.70
2023-07-18T05:32:47.054Z,69.50
2023-07-18T05:35:17.476Z,69.10
2023-07-18T05:37:44.927Z,69.10
2023-07-18T05:40:12.870Z,68.90
2023-07-18T05:42:41.054Z,69.00
2023-07-18T05:45:09.300Z,69.30
2023-07-18T05:47:36.569Z,68.80
2023-07-18T05:50:06.126Z,68.70
2023-07-18T05:52:33.204Z,68.70
2023-07-18T05:55:00.271Z,69.20
2023-07-18T05:57:27.251Z,69.30
2023-07-18T05:59:54.063Z,68.90
2023-07-18T06:02:22.479Z,68.90
2023-07-18T06:04:49.815Z,68.30
2023-07-18T06:07:17.287Z,69.10
2023-07-18T06:09:44.854Z,68.70
2023-07-18T06:12:13.362Z,68.50
2023-07-18T06:14:40.354Z,68.50
2023-07-18T06:17:07.810Z,68.60
2023-07-18T06:19:34.838Z,68.90
2023-07-18T06:22:01.917Z,69.10
2023-07-18T06:24:28.916Z,68.90
2023-07-18T06:26:55.817Z,69.40
2023-07-18T06:29:22.858Z,69.60
2023-07-18T06:31:50.778Z,69.70
2023-07-18T06:34:21.107Z,69.00
2023-07-18T06:36:48.198Z,69.40
2023-07-18T06:39:17.775Z,69.10
2023-07-18T06:41:45.001Z,68.90
2023-07-18T06:44:15.891Z,68.70
2023-07-18T06:46:44.118Z,67.00
2023-07-18T06:49:12.116Z,67.30
2023-07-18T06:51:38.989Z,66.50
2023-07-18T06:54:05.964Z,66.60
2023-07-18T06:56:32.873Z,66.60
2023-07-18T06:58:59.728Z,67.30
2023-07-18T07:01:26.700Z,67.60
2023-07-18T07:03:53.602Z,67.80
2023-07-18T07:06:21.451Z,66.80
2023-07-18T07:08:48.383Z,66.10
2023-07-18T07:11:15.386Z,65.20
2023-07-18T07:13:42.204Z,65.60
2023-07-18T07:16:09.444Z,65.70
2023-07-18T07:18:36.375Z,66.00
2023-07-18T07:21:03.521Z,66.00
2023-07-18T07:23:30.524Z,66.30
2023-07-18T07:25:57.941Z,65.70
2023-07-18T07:28:25.165Z,66.50
2023-07-18T07:30:53.427Z,65.40
2023-07-18T07:33:20.517Z,64.90
2023-07-18T07:35:47.912Z,65.30
2023-07-18T07:38:16.264Z,66.00
2023-07-18T07:40:43.158Z,65.90
2023-07-18T07:43:10.210Z,66.20
2023-07-18T07:45:37.266Z,66.40
2023-07-18T07:48:04.465Z,65.40
2023-07-18T07:50:34.682Z,64.10
2023-07-18T07:53:01.831Z,62.30
2023-07-18T07:55:29.347Z,62.20
2023-07-18T07:57:56.276Z,62.10
2023-07-18T08:00:23.346Z,63.20
2023-07-18T08:02:50.615Z,61.80
2023-07-18T08:05:17.699Z,62.10
2023-07-18T08:07:45.274Z,62.70
2023-07-18T08:10:12.440Z,62.00
2023-07-18T08:12:39.506Z,62.10
2023-07-18T08:15:07.506Z,59.90
2023-07-18T08:17:34.953Z,59.80
2023-07-18T08:20:03.512Z,60.30
2023-07-18T08:22:32.527Z,59.10
2023-07-18T08:24:59.493Z,60.30
2023-07-18T08:27:26.368Z,60.80
2023-07-18T08:29:53.348Z,59.90
2023-07-18T08:32:20.275Z,60.20
2023-07-18T08:34:47.207Z,61.60
2023-07-18T08:37:14.436Z,60.50
2023-07-18T08:39:41.506Z,59.30
2023-07-18T08:42:12.477Z,57.90
2023-07-18T08:44:40.175Z,59.20
2023-07-18T08:47:09.323Z,59.60
2023-07-18T08:49:40.920Z,60.00
2023-07-18T08:52:08.494Z,59.40
2023-07-18T08:54:35.894Z,58.80
2023-07-18T08:57:07.162Z,59.40
2023-07-18T08:59:34.612Z,60.30
2023-07-18T09:02:01.712Z,60.20
2023-07-18T09:04:28.777Z,59.80
2023-07-18T09:07:03.936Z,57.00
2023-07-18T09:09:31.038Z,58.90
2023-07-18T09:12:03.696Z,58.00
2023-07-18T09:14:33.680Z,57.90
2023-07-18T09:17:04.680Z,58.30
2023-07-18T09:19:46.944Z,57.40
2023-07-18T09:22:16.362Z,58.70
2023-07-18T09:24:46.664Z,59.00
2023-07-18T09:27:17.715Z,57.80
2023-07-18T09:29:47.408Z,57.40
2023-07-18T09:32:18.447Z,56.20
2023-07-18T09:35:02.611Z,56.30
2023-07-18T09:37:30.045Z,56.80
2023-07-18T09:39:56.986Z,56.20
2023-07-18T09:42:25.592Z,55.00
2023-07-18T09:44:54.124Z,54.70
2023-07-18T09:47:22.093Z,54.20
2023-07-18T09:49:50.455Z,56.10
2023-07-18T09:52:23.562Z,56.60
2023-07-18T09:54:54.044Z,55.40
2023-07-18T09:57:21.540Z,57.30
2023-07-18T09:59:49.965Z,56.00
2023-07-18T10:02:16.921Z,56.00
2023-07-18T10:04:45.434Z,55.20
2023-07-18T10:07:12.948Z,55.40
2023-07-18T10:09:40.622Z,55.30
2023-07-18T10:12:08.319Z,55.30
2023-07-18T10:14:44.329Z,55.90
2023-07-18T10:17:26.165Z,55.20
2023-07-18T10:19:53.390Z,55.70
2023-07-18T10:22:29.060Z,55.40
2023-07-18T10:25:01.404Z,55.30
2023-07-18T10:27:43.222Z,55.10
2023-07-18T10:30:14.418Z,54.60
2023-07-18T10:32:43.336Z,54.10
2023-07-18T10:35:12.608Z,53.80
2023-07-18T10:37:44.458Z,55.00
2023-07-18T10:40:30.274Z,55.10
2023-07-18T10:42:57.149Z,54.70
2023-07-18T10:45:24.004Z,55.30
2023-07-18T10:47:50.955Z,55.40
2023-07-18T10:50:20.433Z,55.90
2023-07-18T10:52:48.146Z,55.50
2023-07-18T10:55:17.780Z,55.10
2023-07-18T10:57:45.349Z,53.00
2023-07-18T11:00:12.830Z,54.20
2023-07-18T11:02:42.855Z,52.20
2023-07-18T11:05:12.702Z,53.00
2023-07-18T11:07:48.257Z,52.30
2023-07-18T11:10:16.497Z,51.80
2023-07-18T11:12:43.920Z,52.40
2023-07-18T11:15:12.861Z,52.10
2023-07-18T11:17:40.168Z,51.60
2023-07-18T11:20:08.455Z,52.30
2023-07-18T11:22:36.098Z,52.50
2023-07-18T11:25:03.318Z,52.20
2023-07-18T11:27:32.191Z,52.00
2023-07-18T11:30:04.729Z,52.80
2023-07-18T11:32:48.881Z,51.00
2023-07-18T11:35:25.340Z,52.40
2023-07-18T11:37:53.732Z,51.10
2023-07-18T11:40:22.780Z,51.20
2023-07-18T11:42:56.306Z,51.60
2023-07-18T11:45:24.768Z,51.30
2023-07-18T11:47:57.647Z,52.50
2023-07-18T11:50:30.218Z,52.00
2023-07-18T11:53:00.054Z,51.40
2023-07-18T11:55:27.010Z,50.70
2023-07-18T11:57:53.956Z,50.10
2023-07-18T12:00:21.736Z,51.10
2023-07-18T12:02:49.729Z,51.20
2023-07-18T12:05:17.976Z,51.30
2023-07-18T12:07:46.323Z,51.80
2023-07-18T12:10:15.697Z,51.30
2023-07-18T12:12:43.033Z,51.50
2023-07-18T12:15:11.509Z,51.90
2023-07-18T12:17:41.921Z,51.30
2023-07-18T12:20:10.281Z,51.40
2023-07-18T12:22:38.631Z,51.90
2023-07-18T12:25:06.129Z,51.30
2023-07-18T12:27:33.129Z,51.10
2023-07-18T12:30:00.126Z,51.80
2023-07-18T12:32:31.329Z,50.70
2023-07-18T12:34:59.159Z,51.00
2023-07-18T12:37:26.405Z,50.20
2023-07-18T12:39:53.417Z,50.60
2023-07-18T12:42:20.323Z,50.40
2023-07-18T12:44:47.605Z,51.10
2023-07-18T12:47:14.814Z,52.10
2023-07-18T12:52:14.052Z,50.00
2023-07-18T12:54:41.470Z,50.00
2023-07-18T12:57:08.895Z,50.30
2023-07-18T12:59:36.000Z,49.40
2023-07-18T13:02:03.338Z,49.30
2023-07-18T13:04:30.368Z,49.20
2023-07-18T13:06:57.544Z,49.70
2023-07-18T13:09:24.478Z,50.10
2023-07-18T13:11:51.332Z,50.10
2023-07-18T13:14:19.275Z,50.40
2023-07-18T13:16:46.384Z,50.50
2023-07-18T13:19:13.437Z,50.40
2023-07-18T13:21:40.541Z,50.30
2023-07-18T13:24:07.666Z,48.70
2023-07-18T13:26:34.716Z,48.30
2023-07-18T13:29:01.783Z,48.70
2023-07-18T13:31:29.077Z,49.20
2023-07-18T13:33:56.093Z,47.90
2023-07-18T13:36:24.118Z,47.80
2023-07-18T13:38:51.151Z,49.00
2023-07-18T13:41:18.114Z,47.10
2023-07-18T13:43:45.050Z,47.80
2023-07-18T13:46:13.427Z,47.70
2023-07-18T13:48:40.619Z,46.70
2023-07-18T13:51:08.073Z,47.00
2023-07-18T13:53:35.284Z,46.70
2023-07-18T13:56:03.088Z,47.60
2023-07-18T13:58:29.948Z,48.20
2023-07-18T14:00:58.329Z,46.90
2023-07-18T14:03:35.173Z,46.90
2023-07-18T14:06:04.658Z,45.60
2023-07-18T14:08:32.451Z,46.70
2023-07-18T14:10:59.342Z,46.50
2023-07-18T14:13:27.263Z,47.10
2023-07-18T14:15:54.272Z,46.90
2023-07-18T14:18:21.519Z,47.00
2023-07-18T14:20:48.473Z,46.40
2023-07-18T14:23:15.400Z,44.90
2023-07-18T14:25:42.345Z,44.90
2023-07-18T14:28:09.441Z,45.90
2023-07-18T14:30:36.348Z,47.50
2023-07-18T14:33:06.229Z,47.10
2023-07-18T14:35:33.718Z,46.90
2023-07-18T14:38:00.572Z,47.50
2023-07-18T14:40:27.510Z,47.40
2023-07-18T14:42:54.403Z,47.90
2023-07-18T14:45:21.671Z,48.00
2023-07-18T14:47:48.730Z,47.70
2023-07-18T14:50:16.913Z,47.90
2023-07-18T14:52:43.896Z,47.80
2023-07-18T14:55:11.072Z,47.20
2023-07-18T14:57:38.201Z,47.70
2023-07-18T15:00:06.149Z,46.70
2023-07-18T15:02:33.276Z,47.40
2023-07-18T15:05:00.784Z,47.30
2023-07-18T15:07:28.237Z,46.90
2023-07-18T15:09:55.230Z,46.00
2023-07-18T15:12:22.429Z,47.10
2023-07-18T15:14:49.666Z,45.70
2023-07-18T15:17:16.590Z,46.40
2023-07-18T15:19:43.550Z,46.60
2023-07-18T15:22:10.445Z,47.20
2023-07-18T15:24:37.403Z,46.50
2023-07-18T15:27:04.764Z,46.50
2023-07-18T15:29:31.646Z,47.40
2023-07-18T15:31:58.592Z,47.70
2023-07-18T15:34:25.533Z,48.80
2023-07-18T15:36:52.407Z,49.20
2023-07-18T15:39:19.360Z,49.20
2023-07-18T15:41:46.266Z,50.00
2023-07-18T15:44:13.225Z,50.50
2023-07-18T15:46:40.165Z,51.10
2023-07-18T15:49:07.552Z,51.50
2023-07-18T15:51:34.450Z,51.40
2023-07-18T15:54:03.988Z,52.10
2023-07-18T15:56:31.391Z,52.20
2023-07-18T15:58:58.256Z,52.40
2023-07-18T16:01:25.581Z,52.30
2023-07-18T16:03:52.661Z,53.80
2023-07-18T16:06:20.133Z,53.00
2023-07-18T16:08:47.460Z,53.60
2023-07-18T16:11:15.056Z,53.50
2023-07-18T16:13:44.430Z,53.50
2023-07-18T16:16:12.373Z,53.20
2023-07-18T16:18:59.897Z,52.80
2023-07-18T16:21:27.331Z,52.60
2023-07-18T16:23:54.239Z,52.10
2023-07-18T16:26:21.679Z,51.70
2023-07-18T16:28:50.560Z,51.30
2023-07-18T16:31:21.423Z,51.50
2023-07-18T16:33:50.791Z,51.10
2023-07-18T16:36:18.084Z,51.50
2023-07-18T16:38:45.167Z,51.40
2023-07-18T16:41:12.345Z,51.40
2023-07-18T16:43:39.271Z,51.10
2023-07-18T16:46:06.135Z,51.20
2023-07-18T16:48:33.783Z,51.20
2023-07-18T16:51:00.688Z,51.40
2023-07-18T16:53:27.583Z,50.70
2023-07-18T16:55:54.789Z,50.00
2023-07-18T16:58:21.770Z,49.70
2023-07-18T17:00:48.699Z,48.70
2023-07-18T17:03:15.849Z,48.50
2023-07-18T17:05:43.333Z,49.40
2023-07-18T17:08:10.379Z,49.70
2023-07-18T17:10:37.521Z,49.20
2023-07-18T17:13:07.434Z,49.20
2023-07-18T17:15:34.444Z,50.30
2023-07-18T17:18:01.514Z,51.10
2023-07-18T17:20:28.422Z,52.00
2023-07-18T17:22:56.074Z,51.90
2023-07-18T17:25:23.181Z,51.80
2023-07-18T17:27:50.068Z,52.00
2023-07-18T17:30:17.009Z,52.30
2023-07-18T17:32:44.051Z,53.10
2023-07-18T17:35:11.404Z,52.10
2023-07-18T17:37:41.158Z,52.80
2023-07-18T17:40:12.747Z,52.80
2023-07-18T17:42:42.895Z,53.70
2023-07-18T17:45:14.078Z,53.50
2023-07-18T17:47:41.676Z,53.70
2023-07-18T17:50:08.882Z,54.10
2023-07-18T17:52:36.077Z,53.80
2023-07-18T17:55:02.975Z,53.40
2023-07-18T17:57:31.016Z,53.70
2023-07-18T17:59:59.058Z,55.10
2023-07-18T18:02:26.017Z,55.90
2023-07-18T18:05:00.207Z,56.30
2023-07-18T18:07:27.154Z,56.60
2023-07-18T18:09:54.153Z,56.40
2023-07-18T18:12:21.455Z,55.90
2023-07-18T18:14:49.015Z,56.60
2023-07-18T18:17:15.970Z,57.20
2023-07-18T18:19:43.831Z,57.60
2023-07-18T18:22:12.149Z,58.30
2023-07-18T18:24:39.109Z,58.50
2023-07-18T18:27:06.441Z,58.30
2023-07-18T18:29:33.357Z,58.10
2023-07-18T18:32:00.883Z,57.60
2023-07-18T18:34:29.107Z,57.50
2023-07-18T18:36:56.101Z,56.60
2023-07-18T18:39:24.611Z,56.40
2023-07-18T18:41:51.547Z,55.80
2023-07-18T18:44:18.801Z,56.00
2023-07-18T18:46:46.014Z,55.70
2023-07-18T18:49:26.091Z,55.90
2023-07-18T18:51:53.964Z,56.00
2023-07-18T18:54:21.030Z,55.80
2023-07-18T18:56:47.940Z,56.00
2023-07-18T18:59:16.110Z,56.10
2023-07-18T19:01:43.087Z,55.90
2023-07-18T19:04:10.018Z,56.20
2023-07-18T19:06:37.049Z,56.40
2023-07-18T19:09:04.356Z,56.50
2023-07-18T19:11:31.258Z,56.80
2023-07-18T19:14:00.062Z,57.40
2023-07-18T19:16:38.780Z,57.50
2023-07-18T19:19:08.760Z,57.60
2023-07-18T19:21:35.809Z,57.70
2023-07-18T19:24:03.106Z,57.80
2023-07-18T19:26:30.086Z,59.30
2023-07-18T19:28:56.951Z,59.80
2023-07-18T19:31:24.251Z,60.30
2023-07-18T19:33:51.271Z,60.50
2023-07-18T19:36:18.442Z,61.00
2023-07-18T19:38:45.384Z,61.10
2023-07-18T19:41:12.259Z,61.20
2023-07-18T19:43:39.080Z,61.50
2023-07-18T19:46:06.189Z,61.00
2023-07-18T19:48:33.252Z,60.90
2023-07-18T19:51:00.090Z,61.00
2023-07-18T19:53:27.623Z,61.20
2023-07-18T19:55:56.456Z,61.80
2023-07-18T19:58:23.377Z,62.00
2023-07-18T20:00:50.363Z,62.20
2023-07-18T20:03:17.222Z,62.40
2023-07-18T20:05:44.193Z,62.70
2023-07-18T20:08:11.442Z,62.30
2023-07-18T20:10:38.358Z,62.60
2023-07-18T20:13:05.268Z,61.50
2023-07-18T20:15:32.308Z,61.50
2023-07-18T20:17:59.239Z,61.70
2023-07-18T20:20:26.248Z,61.80
2023-07-18T20:22:53.183Z,62.30
2023-07-18T20:25:20.134Z,62.20
2023-07-18T20:27:47.047Z,62.30
2023-07-18T20:30:14.018Z,62.50
2023-07-18T20:32:40.924Z,63.20
2023-07-18T20:35:09.526Z,63.70
2023-07-18T20:37:36.661Z,63.80
2023-07-18T20:40:05.350Z,63.80
2023-07-18T20:42:35.592Z,64.20
2023-07-18T20:45:03.533Z,64.60
2023-07-18T20:47:31.556Z,64.80
2023-07-18T20:49:58.343Z,64.70
2023-07-18T20:52:25.292Z,64.20
2023-07-18T20:54:52.783Z,63.80
2023-07-18T20:57:20.159Z,63.80
2023-07-18T20:59:47.080Z,63.40
2023-07-18T21:02:14.432Z,63.10
2023-07-18T21:04:41.824Z,62.80
2023-07-18T21:07:08.720Z,62.70
2023-07-18T21:09:35.658Z,62.70
2023-07-18T21:12:02.591Z,62.80
2023-07-18T21:14:29.483Z,62.90
2023-07-18T21:16:56.843Z,63.10
2023-07-18T21:19:23.754Z,63.10
2023-07-18T21:21:50.661Z,63.30
2023-07-18T21:24:17.600Z,63.30
2023-07-18T21:26:44.876Z,63.30
2023-07-18T21:29:11.755Z,63.60
2023-07-18T21:31:38.808Z,63.60
2023-07-18T21:34:05.733Z,63.80
2023-07-18T21:36:32.711Z,64.30
2023-07-18T21:38:59.798Z,64.90
2023-07-18T21:41:30.201Z,65.40
2023-07-18T21:43:57.381Z,65.60
2023-07-18T21:46:26.017Z,66.20
2023-07-18T21:48:54.480Z,66.60
2023-07-18T21:51:21.771Z,66.70
2023-07-18T21:53:48.924Z,66.50
2023-07-18T21:56:16.000Z,66.60
2023-07-18T21:58:42.908Z,67.10
2023-07-18T22:01:09.833Z,67.20
2023-07-18T22:03:36.762Z,67.20
2023-07-18T22:06:03.875Z,67.40
2023-07-18T22:08:30.853Z,67.60
2023-07-18T22:10:57.765Z,67.90
2023-07-18T22:13:24.838Z,68.20
2023-07-18T22:15:51.677Z,68.50
2023-07-18T22:18:27.297Z,68.70
2023-07-18T22:20:55.416Z,68.90
2023-07-18T22:23:22.324Z,68.70
2023-07-18T22:26:03.685Z,68.50
2023-07-18T22:28:36.471Z,68.40
2023-07-18T22:31:03.528Z,67.80
2023-07-18T22:33:30.500Z,67.70
2023-07-18T22:35:57.466Z,67.90
2023-07-18T22:38:24.309Z,67.90
2023-07-18T22:40:51.145Z,67.70
2023-07-18T22:43:17.972Z,67.80
2023-07-18T22:45:46.332Z,67.80
2023-07-18T22:48:13.199Z,67.90
2023-07-18T22:50:40.088Z,67.90
2023-07-18T22:53:07.047Z,67.40
2023-07-18T22:55:34.158Z,67.40
2023-07-18T22:58:01.081Z,67.60
2023-07-18T23:00:28.272Z,67.30
2023-07-18T23:02:55.305Z,67.20
2023-07-18T23:05:23.053Z,67.50
2023-07-18T23:07:49.940Z,67.50
2023-07-18T23:10:17.070Z,67.60
2023-07-18T23:12:43.904Z,67.80
2023-07-18T23:15:11.432Z,67.90
2023-07-18T23:17:38.336Z,68.00
2023-07-18T23:20:06.947Z,67.80
2023-07-18T23:22:33.940Z,67.90
2023-07-18T23:25:01.098Z,67.00
2023-07-18T23:27:28.083Z,67.00
2023-07-18T23:29:54.944Z,67.10
2023-07-18T23:32:22.338Z,67.20
2023-07-18T23:34:49.354Z,67.30
2023-07-18T23:37:16.310Z,67.70
2023-07-18T23:39:43.177Z,67.90
2023-07-18T23:42:10.075Z,68.10
2023-07-18T23:44:37.344Z,68.10
2023-07-18T23:47:04.594Z,68.40
2023-07-18T23:49:31.498Z,68.20
2023-07-18T23:51:58.419Z,68.50
2023-07-18T23:54:26.066Z,68.50
2023-07-18T23:56:53.072Z,68.60
2023-07-18T23:59:20.082Z,68.80
